createdAt,value
2023-02-15T00:01:42.937Z,0.29
2023-02-15T00:04:11.670Z,0.29
2023-02-15T00:06:39.601Z,0.28
2023-02-15T00:09:08.568Z,0.32
2023-02-15T00:11:43.484Z,0.34
2023-02-15T00:14:13.749Z,0.35
2023-02-15T00:16:42.580Z,0.41
2023-02-15T00:19:11.159Z,0.50
2023-02-15T00:21:40.007Z,0.55
2023-02-15T00:24:11.300Z,0.62
2023-02-15T00:26:40.663Z,0.70
2023-02-15T00:29:09.422Z,0.73
2023-02-15T00:31:37.499Z,0.77
2023-02-15T00:34:07.100Z,0.79
2023-02-15T00:36:35.315Z,0.80
2023-02-15T00:39:03.077Z,0.80
2023-02-15T00:41:32.219Z,0.78
2023-02-15T00:43:59.807Z,0.73
2023-02-15T00:46:28.179Z,0.68
2023-02-15T00:48:56.050Z,0.66
2023-02-15T00:51:23.710Z,0.64
2023-02-15T00:53:51.425Z,0.60
2023-02-15T00:56:19.409Z,0.57
2023-02-15T00:58:48.372Z,0.55
2023-02-15T01:01:18.530Z,0.49
2023-02-15T01:03:47.457Z,0.44
2023-02-15T01:06:16.201Z,0.33
2023-02-15T01:08:44.394Z,0.26
2023-02-15T01:11:15.483Z,0.24
2023-02-15T01:13:43.575Z,0.18
2023-02-15T01:16:12.563Z,0.13
2023-02-15T01:18:40.243Z,0.09
2023-02-15T01:21:14.790Z,-0.01
2023-02-15T01:23:43.075Z,-0.04
2023-02-15T01:26:11.537Z,-0.07
2023-02-15T01:28:39.592Z,-0.06
2023-02-15T01:31:08.424Z,-0.06
2023-02-15T01:33:38.141Z,-0.08
2023-02-15T01:36:06.972Z,-0.13
2023-02-15T01:38:36.134Z,-0.17
2023-02-15T01:41:18.244Z,-0.24
2023-02-15T01:43:48.348Z,-0.30
2023-02-15T01:46:18.523Z,-0.32
2023-02-15T01:48:51.482Z,-0.32
2023-02-15T01:51:23.926Z,-0.33
2023-02-15T01:53:56.440Z,-0.37
2023-02-15T01:56:26.852Z,-0.39
2023-02-15T01:58:58.738Z,-0.42
2023-02-15T02:01:27.668Z,-0.45
2023-02-15T02:04:02.602Z,-0.48
2023-02-15T02:06:31.309Z,-0.49
2023-02-15T02:08:59.523Z,-0.48
2023-02-15T02:11:27.143Z,-0.45
2023-02-15T02:13:56.608Z,-0.41
2023-02-15T02:16:29.596Z,-0.38
2023-02-15T02:19:20.901Z,-0.31
2023-02-15T02:22:10.006Z,-0.25
2023-02-15T02:25:01.989Z,-0.19
2023-02-15T02:27:38.524Z,-0.18
2023-02-15T02:30:29.325Z,-0.13
2023-02-15T02:33:21.806Z,-0.08
2023-02-15T02:35:59.175Z,-0.07
2023-02-15T02:38:34.664Z,-0.04
2023-02-15T02:41:14.803Z,0.02
2023-02-15T02:43:49.579Z,0.01
2023-02-15T02:46:22.492Z,0.03
2023-02-15T02:48:52.066Z,0.07
2023-02-15T02:51:22.421Z,0.08
2023-02-15T02:53:56.465Z,0.09
2023-02-15T02:56:29.405Z,0.11
2023-02-15T02:59:01.333Z,0.12
2023-02-15T03:01:35.312Z,0.14
2023-02-15T03:04:09.343Z,0.16
2023-02-15T03:06:47.919Z,0.19
2023-02-15T03:09:19.488Z,0.21
2023-02-15T03:11:48.071Z,0.21
2023-02-15T03:14:18.274Z,0.24
2023-02-15T03:16:49.373Z,0.27
2023-02-15T03:19:24.805Z,0.30
2023-02-15T03:22:04.762Z,0.34
2023-02-15T03:24:36.505Z,0.35
2023-02-15T03:27:08.193Z,0.39
2023-02-15T03:29:37.325Z,0.43
2023-02-15T03:32:08.650Z,0.41
2023-02-15T03:34:37.723Z,0.40
2023-02-15T03:37:14.359Z,0.36
2023-02-15T03:39:47.078Z,0.40
2023-02-15T03:42:19.332Z,0.42
2023-02-15T03:44:53.487Z,0.43
2023-02-15T03:47:24.235Z,0.42
2023-02-15T03:49:57.497Z,0.43
2023-02-15T03:52:27.316Z,0.48
2023-02-15T03:54:55.697Z,0.46
2023-02-15T03:57:42.781Z,0.47
2023-02-15T04:00:34.117Z,0.47
2023-02-15T04:03:24.333Z,0.46
2023-02-15T04:05:53.339Z,0.45
2023-02-15T04:08:21.015Z,0.45
2023-02-15T04:10:53.489Z,0.44
2023-02-15T04:13:21.497Z,0.47
2023-02-15T04:16:07.556Z,0.48
2023-02-15T04:18:55.125Z,0.50
2023-02-15T04:21:43.143Z,0.54
2023-02-15T04:24:28.824Z,0.54
2023-02-15T04:26:56.812Z,0.53
2023-02-15T04:29:25.901Z,0.56
2023-02-15T04:31:55.037Z,0.58
2023-02-15T04:34:22.785Z,0.63
2023-02-15T04:36:52.208Z,0.66
2023-02-15T04:39:20.634Z,0.69
2023-02-15T04:41:48.801Z,0.71
2023-02-15T04:44:16.711Z,0.72
2023-02-15T04:46:44.622Z,0.76
2023-02-15T04:49:12.317Z,0.76
2023-02-15T04:51:39.976Z,0.76
2023-02-15T04:54:08.964Z,0.74
2023-02-15T04:56:38.665Z,0.74
2023-02-15T04:59:06.329Z,0.73
2023-02-15T05:01:33.928Z,0.74
2023-02-15T05:04:01.522Z,0.73
2023-02-15T05:06:29.601Z,0.71
2023-02-15T05:08:59.846Z,0.68
2023-02-15T05:11:29.191Z,0.67
2023-02-15T05:13:56.849Z,0.66
2023-02-15T05:16:24.569Z,0.64
2023-02-15T05:18:52.493Z,0.65
2023-02-15T05:21:20.089Z,0.63
2023-02-15T05:23:47.855Z,0.62
2023-02-15T05:26:37.653Z,0.64
2023-02-15T05:29:06.832Z,0.62
2023-02-15T05:31:35.734Z,0.62
2023-02-15T05:34:03.671Z,0.60
2023-02-15T05:36:31.312Z,0.57
2023-02-15T05:38:59.004Z,0.51
2023-02-15T05:41:26.636Z,0.51
2023-02-15T05:43:57.069Z,0.54
2023-02-15T05:46:26.277Z,0.59
2023-02-15T05:48:53.908Z,0.57
2023-02-15T05:51:21.578Z,0.59
2023-02-15T05:53:49.147Z,0.57
2023-02-15T05:56:16.761Z,0.60
2023-02-15T05:58:44.521Z,0.60
2023-02-15T06:01:13.620Z,0.62
2023-02-15T06:03:43.018Z,0.64
2023-02-15T06:06:11.247Z,0.64
2023-02-15T06:08:40.057Z,0.63
2023-02-15T06:11:08.541Z,0.67
2023-02-15T06:13:38.923Z,0.70
2023-02-15T06:16:07.365Z,0.69
2023-02-15T06:18:35.524Z,0.68
2023-02-15T06:21:04.685Z,0.71
2023-02-15T06:23:32.390Z,0.72
2023-02-15T06:26:00.219Z,0.71
2023-02-15T06:28:27.952Z,0.72
2023-02-15T06:30:55.632Z,0.72
2023-02-15T06:33:23.729Z,0.72
2023-02-15T06:35:51.381Z,0.72
2023-02-15T06:38:20.348Z,0.72
2023-02-15T06:40:48.515Z,0.71
2023-02-15T06:43:16.176Z,0.73
2023-02-15T06:45:43.998Z,0.70
2023-02-15T06:48:12.101Z,0.72
2023-02-15T06:50:39.746Z,0.72
2023-02-15T06:53:07.429Z,0.74
2023-02-15T06:55:36.428Z,0.73
2023-02-15T06:58:04.021Z,0.74
2023-02-15T07:00:31.833Z,0.75
2023-02-15T07:03:01.004Z,0.76
2023-02-15T07:05:31.673Z,0.80
2023-02-15T07:08:00.387Z,0.79
2023-02-15T07:10:28.187Z,0.80
2023-02-15T07:12:56.146Z,0.81
2023-02-15T07:15:24.085Z,0.84
2023-02-15T07:17:52.040Z,0.82
2023-02-15T07:20:21.531Z,0.85
2023-02-15T07:22:49.748Z,0.86
2023-02-15T07:25:17.777Z,0.91
2023-02-15T07:27:45.823Z,0.95
2023-02-15T07:30:17.477Z,1.00
2023-02-15T07:33:05.558Z,1.05
2023-02-15T07:35:33.866Z,1.11
2023-02-15T07:38:01.599Z,1.13
2023-02-15T07:40:29.247Z,1.17
2023-02-15T07:43:00.223Z,1.20
2023-02-15T07:45:29.407Z,1.23
2023-02-15T07:47:57.020Z,1.23
2023-02-15T07:50:24.994Z,1.27
2023-02-15T07:52:52.570Z,1.30
2023-02-15T07:55:20.290Z,1.32
2023-02-15T07:57:49.496Z,1.38
2023-02-15T08:00:18.732Z,1.49
2023-02-15T08:03:11.090Z,1.51
2023-02-15T08:05:39.065Z,1.57
2023-02-15T08:08:06.861Z,1.66
2023-02-15T08:10:52.389Z,1.78
2023-02-15T08:13:20.326Z,1.85
2023-02-15T08:15:50.599Z,1.96
2023-02-15T08:18:19.801Z,2.03
2023-02-15T08:20:51.336Z,2.12
2023-02-15T08:23:18.994Z,2.14
2023-02-15T08:25:46.649Z,2.21
2023-02-15T08:28:14.425Z,2.32
2023-02-15T08:30:42.211Z,2.33
2023-02-15T08:33:10.794Z,2.34
2023-02-15T08:35:39.723Z,2.33
2023-02-15T08:38:07.341Z,2.32
2023-02-15T08:40:35.861Z,2.30
2023-02-15T08:43:03.456Z,2.31
2023-02-15T08:45:31.094Z,2.29
2023-02-15T08:47:58.682Z,2.26
2023-02-15T08:50:26.267Z,2.30
2023-02-15T08:52:57.595Z,2.33
2023-02-15T08:55:25.222Z,2.29
2023-02-15T08:57:52.848Z,2.29
2023-02-15T09:00:23.418Z,2.33
2023-02-15T09:02:51.300Z,2.36
2023-02-15T09:05:18.849Z,2.42
2023-02-15T09:07:46.527Z,2.48
2023-02-15T09:10:15.763Z,2.58
2023-02-15T09:12:43.399Z,2.63
2023-02-15T09:15:11.803Z,2.69
2023-02-15T09:17:39.478Z,2.72
2023-02-15T09:20:08.503Z,2.68
2023-02-15T09:22:36.122Z,2.81
2023-02-15T09:25:03.806Z,2.86
2023-02-15T09:27:32.846Z,2.92
2023-02-15T09:30:00.495Z,3.00
2023-02-15T09:32:28.176Z,3.08
2023-02-15T09:34:55.926Z,3.15
2023-02-15T09:37:23.500Z,3.07
2023-02-15T09:39:51.117Z,3.12
2023-02-15T09:42:42.667Z,3.19
2023-02-15T09:45:28.663Z,3.35
2023-02-15T09:48:30.535Z,3.41
2023-02-15T09:51:12.169Z,3.55
2023-02-15T09:53:58.256Z,3.68
2023-02-15T09:56:37.792Z,3.79
2023-02-15T09:59:18.814Z,3.76
2023-02-15T10:01:54.244Z,3.86
2023-02-15T10:04:47.967Z,3.90
2023-02-15T10:07:25.683Z,3.90
2023-02-15T10:10:04.785Z,3.90
2023-02-15T10:12:44.553Z,4.07
2023-02-15T10:15:30.591Z,4.14
2023-02-15T10:18:12.002Z,4.27
2023-02-15T10:20:51.006Z,4.37
2023-02-15T10:23:35.249Z,4.40
2023-02-15T10:26:12.336Z,4.38
2023-02-15T10:28:47.299Z,4.35
2023-02-15T10:31:29.119Z,4.34
2023-02-15T10:34:17.602Z,4.40
2023-02-15T10:37:05.382Z,4.39
2023-02-15T10:39:44.985Z,4.47
2023-02-15T10:42:22.467Z,4.54
2023-02-15T10:45:08.786Z,4.68
2023-02-15T10:47:55.848Z,4.72
2023-02-15T10:50:38.872Z,4.80
2023-02-15T10:53:31.211Z,4.88
2023-02-15T10:56:09.739Z,4.89
2023-02-15T10:58:48.983Z,4.96
2023-02-15T11:01:24.448Z,4.99
2023-02-15T11:04:12.323Z,5.14
2023-02-15T11:06:49.198Z,5.14
2023-02-15T11:09:19.252Z,5.15
2023-02-15T11:11:52.129Z,5.16
2023-02-15T11:14:25.685Z,5.08
2023-02-15T11:16:57.054Z,5.09
2023-02-15T11:19:33.200Z,5.03
2023-02-15T11:22:03.251Z,5.08
2023-02-15T11:24:35.675Z,5.11
2023-02-15T11:27:07.531Z,5.24
2023-02-15T11:29:40.587Z,5.28
2023-02-15T11:32:22.259Z,5.36
2023-02-15T11:34:55.481Z,5.49
2023-02-15T11:37:29.782Z,5.61
2023-02-15T11:39:57.774Z,5.69
2023-02-15T11:42:27.347Z,5.75
2023-02-15T11:45:01.740Z,5.75
2023-02-15T11:47:29.996Z,5.71
2023-02-15T11:49:59.708Z,5.66
2023-02-15T11:52:27.319Z,5.65
2023-02-15T11:54:55.585Z,5.69
2023-02-15T11:57:29.913Z,5.79
2023-02-15T12:00:04.891Z,5.86
2023-02-15T12:02:35.904Z,5.84
2023-02-15T12:05:11.383Z,5.93
2023-02-15T12:07:44.455Z,5.94
2023-02-15T12:10:21.052Z,5.95
2023-02-15T12:12:48.738Z,5.86
2023-02-15T12:15:16.442Z,5.92
2023-02-15T12:17:52.670Z,5.95
2023-02-15T12:20:31.433Z,5.91
2023-02-15T12:23:04.237Z,5.89
2023-02-15T12:25:37.524Z,6.02
2023-02-15T12:28:06.272Z,5.94
2023-02-15T12:30:37.740Z,5.86
2023-02-15T12:33:16.170Z,6.00
2023-02-15T12:35:50.243Z,6.04
2023-02-15T12:38:25.674Z,5.98
2023-02-15T12:41:00.889Z,6.01
2023-02-15T12:43:31.846Z,6.08
2023-02-15T12:46:16.741Z,6.11
2023-02-15T12:48:44.390Z,6.15
2023-02-15T12:51:17.625Z,6.10
2023-02-15T12:53:45.468Z,6.06
2023-02-15T12:56:13.153Z,6.11
2023-02-15T12:58:41.647Z,6.07
2023-02-15T13:01:16.419Z,6.07
2023-02-15T13:03:58.382Z,6.16
2023-02-15T13:06:28.566Z,6.15
2023-02-15T13:08:59.507Z,6.11
2023-02-15T13:11:31.156Z,6.17
2023-02-15T13:14:01.511Z,6.21
2023-02-15T13:16:33.751Z,6.24
2023-02-15T13:19:08.752Z,6.32
2023-02-15T13:21:41.692Z,6.35
2023-02-15T13:24:19.872Z,6.37
2023-02-15T13:26:49.054Z,6.33
2023-02-15T13:29:22.953Z,6.37
2023-02-15T13:31:52.059Z,6.44
2023-02-15T13:34:25.474Z,6.43
2023-02-15T13:37:02.557Z,6.44
2023-02-15T13:39:41.030Z,6.42
2023-02-15T13:42:23.093Z,6.46
2023-02-15T13:45:04.624Z,6.45
2023-02-15T13:47:43.343Z,6.48
2023-02-15T13:50:30.467Z,6.54
2023-02-15T13:53:18.127Z,6.50
2023-02-15T13:55:52.842Z,6.56
2023-02-15T13:58:37.259Z,6.45
2023-02-15T14:01:11.790Z,6.44
2023-02-15T14:04:17.741Z,6.30
2023-02-15T14:07:14.288Z,6.24
2023-02-15T14:09:55.088Z,6.24
2023-02-15T14:12:37.266Z,6.20
2023-02-15T14:15:24.753Z,6.20
2023-02-15T14:18:04.707Z,6.19
2023-02-15T14:20:43.599Z,6.25
2023-02-15T14:23:30.509Z,6.30
2023-02-15T14:26:06.459Z,6.34
2023-02-15T14:28:43.336Z,6.32
2023-02-15T14:31:15.556Z,6.29
2023-02-15T14:33:55.881Z,6.32
2023-02-15T14:36:26.810Z,6.33
2023-02-15T14:39:05.184Z,6.34
2023-02-15T14:41:40.712Z,6.33
2023-02-15T14:44:15.212Z,6.35
2023-02-15T14:46:50.509Z,6.35
2023-02-15T14:49:23.859Z,6.38
2023-02-15T14:52:09.604Z,6.38
2023-02-15T14:54:58.212Z,6.35
2023-02-15T14:57:36.066Z,6.32
2023-02-15T15:00:33.363Z,6.28
2023-02-15T15:03:02.192Z,6.26
2023-02-15T15:05:35.107Z,6.24
2023-02-15T15:08:05.691Z,6.15
2023-02-15T15:10:42.976Z,6.09
2023-02-15T15:13:48.354Z,6.05
2023-02-15T15:16:53.479Z,6.01
2023-02-15T15:20:09.322Z,5.98
2023-02-15T15:22:38.231Z,5.98
2023-02-15T15:25:11.446Z,5.97
2023-02-15T15:27:49.531Z,5.94
2023-02-15T15:31:02.894Z,5.88
2023-02-15T15:34:00.761Z,5.88
2023-02-15T15:37:12.722Z,5.84
2023-02-15T15:40:13.921Z,5.80
2023-02-15T15:42:51.495Z,5.79
2023-02-15T15:45:41.714Z,5.77
2023-02-15T15:48:34.322Z,5.73
2023-02-15T15:51:07.827Z,5.66
2023-02-15T15:53:43.184Z,5.60
2023-02-15T15:56:16.430Z,5.57
2023-02-15T15:58:51.514Z,5.50
2023-02-15T16:01:28.334Z,5.41
2023-02-15T16:03:58.208Z,5.39
2023-02-15T16:06:33.842Z,5.36
2023-02-15T16:09:17.512Z,5.33
2023-02-15T16:11:45.891Z,5.29
2023-02-15T16:14:16.291Z,5.25
2023-02-15T16:16:51.471Z,5.19
2023-02-15T16:19:25.721Z,5.17
2023-02-15T16:21:55.692Z,5.11
2023-02-15T16:24:30.021Z,5.08
2023-02-15T16:27:27.714Z,5.05
2023-02-15T16:29:55.377Z,4.98
2023-02-15T16:32:25.610Z,4.97
2023-02-15T16:34:58.378Z,4.96
2023-02-15T16:37:28.920Z,4.93
2023-02-15T16:39:57.257Z,4.92
2023-02-15T16:42:25.800Z,4.92
2023-02-15T16:45:01.253Z,4.92
2023-02-15T16:47:32.474Z,4.91
2023-02-15T16:50:02.430Z,4.81
2023-02-15T16:52:32.517Z,4.81
2023-02-15T16:55:01.703Z,4.80
2023-02-15T16:57:34.462Z,4.78
2023-02-15T17:00:07.102Z,4.80
2023-02-15T17:02:56.296Z,4.83
2023-02-15T17:05:24.543Z,4.83
2023-02-15T17:08:07.957Z,4.83
2023-02-15T17:10:37.700Z,4.85
2023-02-15T17:13:11.615Z,4.84
2023-02-15T17:15:41.295Z,4.78
2023-02-15T17:18:16.947Z,4.74
2023-02-15T17:20:45.599Z,4.69
2023-02-15T17:23:24.895Z,4.64
2023-02-15T17:25:53.146Z,4.60
2023-02-15T17:28:23.918Z,4.59
2023-02-15T17:30:53.390Z,4.57
2023-02-15T17:33:23.640Z,4.58
2023-02-15T17:36:07.006Z,4.55
2023-02-15T17:38:36.486Z,4.52
2023-02-15T17:41:04.545Z,4.52
2023-02-15T17:43:32.442Z,4.53
2023-02-15T17:46:00.500Z,4.54
2023-02-15T17:48:34.024Z,4.55
2023-02-15T17:51:03.924Z,4.50
2023-02-15T17:53:31.985Z,4.53
2023-02-15T17:56:00.124Z,4.54
2023-02-15T17:58:27.750Z,4.55
2023-02-15T18:01:15.191Z,4.53
2023-02-15T18:04:02.592Z,4.54
2023-02-15T18:06:48.331Z,4.56
2023-02-15T18:09:35.566Z,4.54
2023-02-15T18:12:14.924Z,4.55
2023-02-15T18:14:44.712Z,4.58
2023-02-15T18:17:14.273Z,4.57
2023-02-15T18:19:42.987Z,4.54
2023-02-15T18:22:12.480Z,4.57
2023-02-15T18:24:40.514Z,4.58
2023-02-15T18:27:09.759Z,4.58
2023-02-15T18:29:37.364Z,4.59
2023-02-15T18:32:09.147Z,4.60
2023-02-15T18:34:39.304Z,4.56
2023-02-15T18:37:11.953Z,4.56
2023-02-15T18:39:43.763Z,4.55
2023-02-15T18:42:21.548Z,4.53
2023-02-15T18:44:49.285Z,4.55
2023-02-15T18:47:18.945Z,4.56
2023-02-15T18:49:46.635Z,4.55
2023-02-15T18:52:17.621Z,4.59
2023-02-15T18:54:46.191Z,4.55
2023-02-15T18:57:16.862Z,4.59
2023-02-15T18:59:44.575Z,4.59
2023-02-15T19:02:14.164Z,4.62
2023-02-15T19:04:42.290Z,4.59
2023-02-15T19:07:17.977Z,4.59
2023-02-15T19:09:48.094Z,4.57
2023-02-15T19:12:19.382Z,4.60
2023-02-15T19:14:47.377Z,4.59
2023-02-15T19:17:16.708Z,4.58
2023-02-15T19:19:44.482Z,4.59
2023-02-15T19:22:14.964Z,4.58
2023-02-15T19:24:45.763Z,4.56
2023-02-15T19:27:24.492Z,4.59
2023-02-15T19:29:53.052Z,4.56
2023-02-15T19:32:20.754Z,4.57
2023-02-15T19:34:48.402Z,4.59
2023-02-15T19:37:25.118Z,4.59
2023-02-15T19:39:53.329Z,4.60
2023-02-15T19:42:25.106Z,4.56
2023-02-15T19:44:54.505Z,4.59
2023-02-15T19:47:22.821Z,4.56
2023-02-15T19:49:50.628Z,4.55
2023-02-15T19:52:20.998Z,4.53
2023-02-15T19:54:49.791Z,4.52
2023-02-15T19:57:17.621Z,4.53
2023-02-15T19:59:46.791Z,4.53
2023-02-15T20:02:15.954Z,4.53
2023-02-15T20:04:43.672Z,4.52
2023-02-15T20:07:22.693Z,4.53
2023-02-15T20:09:50.333Z,4.54
2023-02-15T20:12:22.815Z,4.52
2023-02-15T20:14:51.901Z,4.51
2023-02-15T20:17:20.011Z,4.48
2023-02-15T20:19:47.714Z,4.46
2023-02-15T20:22:23.376Z,4.45
2023-02-15T20:24:52.186Z,4.44
2023-02-15T20:27:20.210Z,4.38
2023-02-15T20:29:47.856Z,4.35
2023-02-15T20:32:17.107Z,4.32
2023-02-15T20:34:44.841Z,4.32
2023-02-15T20:37:23.130Z,4.33
2023-02-15T20:39:51.990Z,4.32
2023-02-15T20:42:21.382Z,4.32
2023-02-15T20:44:49.317Z,4.32
2023-02-15T20:47:18.525Z,4.33
2023-02-15T20:49:46.152Z,4.33
2023-02-15T20:52:20.060Z,4.35
2023-02-15T20:54:47.751Z,4.34
2023-02-15T20:57:16.559Z,4.32
2023-02-15T20:59:44.318Z,4.30
2023-02-15T21:02:23.066Z,4.29
2023-02-15T21:04:50.938Z,4.25
2023-02-15T21:07:20.580Z,4.17
2023-02-15T21:09:49.106Z,4.13
2023-02-15T21:12:18.826Z,4.10
2023-02-15T21:14:46.830Z,4.10
2023-02-15T21:17:16.257Z,4.06
2023-02-15T21:19:46.076Z,4.06
2023-02-15T21:22:15.204Z,4.04
2023-02-15T21:24:50.099Z,4.03
2023-02-15T21:27:18.350Z,4.02
2023-02-15T21:29:45.925Z,4.00
2023-02-15T21:32:13.689Z,3.99
2023-02-15T21:34:41.354Z,3.97
2023-02-15T21:37:27.382Z,3.96
2023-02-15T21:39:54.987Z,3.90
2023-02-15T21:42:40.070Z,3.87
2023-02-15T21:45:31.683Z,3.84
2023-02-15T21:47:59.537Z,3.80
2023-02-15T21:50:44.565Z,3.75
2023-02-15T21:53:20.163Z,3.71
2023-02-15T21:55:47.853Z,3.70
2023-02-15T21:58:20.906Z,3.66
2023-02-15T22:00:49.120Z,3.62
2023-02-15T22:03:17.417Z,3.57
2023-02-15T22:05:45.018Z,3.55
2023-02-15T22:08:14.759Z,3.53
2023-02-15T22:10:43.216Z,3.50
2023-02-15T22:13:15.737Z,3.50
2023-02-15T22:15:46.516Z,3.48
2023-02-15T22:18:22.825Z,3.46
2023-02-15T22:20:50.674Z,3.45
2023-02-15T22:23:20.142Z,3.44
2023-02-15T22:25:54.577Z,3.43
2023-02-15T22:28:27.318Z,3.42
2023-02-15T22:30:54.960Z,3.39
2023-02-15T22:33:26.269Z,3.40
2023-02-15T22:35:54.240Z,3.38
2023-02-15T22:38:23.288Z,3.37
2023-02-15T22:40:52.756Z,3.37
2023-02-15T22:43:31.477Z,3.35
2023-02-15T22:46:02.946Z,3.35
2023-02-15T22:48:30.870Z,3.35
2023-02-15T22:50:58.743Z,3.34
2023-02-15T22:53:28.097Z,3.34
2023-02-15T22:55:56.809Z,3.33
2023-02-15T22:58:28.028Z,3.31
2023-02-15T23:00:57.960Z,3.28
2023-02-15T23:03:28.671Z,3.26
2023-02-15T23:05:56.485Z,3.25
2023-02-15T23:08:24.186Z,3.24
2023-02-15T23:10:56.374Z,3.22
2023-02-15T23:13:26.324Z,3.20
2023-02-15T23:15:58.633Z,3.19
2023-02-15T23:18:30.443Z,3.18
2023-02-15T23:20:59.932Z,3.16
2023-02-15T23:23:32.330Z,3.14
2023-02-15T23:26:04.248Z,3.12
2023-02-15T23:28:36.310Z,3.11
2023-02-15T23:31:07.086Z,3.11
2023-02-15T23:33:35.924Z,3.10
2023-02-15T23:36:03.631Z,3.09
2023-02-15T23:38:33.471Z,3.09
2023-02-15T23:41:22.838Z,3.10
2023-02-15T23:43:54.897Z,3.11
2023-02-15T23:46:34.953Z,3.09
2023-02-15T23:49:14.642Z,3.10
2023-02-15T23:51:43.855Z,3.09
2023-02-15T23:54:12.128Z,3.09
2023-02-15T23:56:42.773Z,3.12
2023-02-15T23:59:16.350Z,3.14
